Michalis L — A8TZ8 — position and weather

sailwx.info

Track history (hours):
 
Tides and Currents Weather Stations Pressure Air Temp Water Temp Dewpoint Dewpoint Depression Visibility Wind Speed Wind Dir Waves Ship Positions

Michalis L

Last reported at 2016-Jul-20 03:33 UTC. Time now 2016-Jul-30 22:34 UTC.
Position S 34°45' W 057°36'.
Warning: this ship's position is 10 days out of date.

Length 230 m; draft 10.2 m.

Type: Cargo ship. MMSI: 636014462.

Date/timePositionNaut miles runAvg speedWind from/ knotsBaromVisibWave heightAir tempDewpointWater temp
2016-Jul-20 03:33S 34°45' W 057°36'1010.4
2016-Jul-20 02:33S 34°44' W 057°48'3 3.4
2016-Jul-20 01:33S 34°43' W 057°52'1010.4
2016-Jul-20 00:33S 34°39' W 058°04'10 9.8
2016-Jul-19 23:33S 34°36' W 058°15'  
2016-Jul-15 17:33S 34°37' W 058°14'8 8.0
2016-Jul-15 16:34S 34°39' W 058°05'8 7.7
2016-Jul-15 15:34S 34°42' W 057°56'5 3.6
2016-Jul-15 14:15S 34°44' W 057°51'0 0.0
2016-Jul-15 13:33S 34°44' W 057°51'0 0.0
2016-Jul-15 12:33S 34°44' W 057°51'0 0.0
2016-Jul-15 11:33S 34°44' W 057°51'0 0.0
2016-Jul-15 10:33S 34°44' W 057°51'2 1.7
2016-Jul-15 09:33S 34°43' W 057°52'3 2.9
2016-Jul-15 08:33S 34°45' W 057°50'7 6.8
2016-Jul-15 07:33S 34°44' W 057°41'  
Track history (hours):
 
Tides and Currents Weather Stations Pressure Air Temp Water Temp Dewpoint Dewpoint Depression Visibility Wind Speed Wind Dir Waves Ship Positions

Michalis L

Last reported at 2016-Jul-20 03:33 UTC. Time now 2016-Jul-30 22:34 UTC.
Position S 34°45' W 057°36'.
Warning: this ship's position is 10 days out of date.

Length 230 m; draft 10.2 m.

Type: Cargo ship. MMSI: 636014462.

Date/timePositionNaut miles runAvg speedWind from/ knotsBaromVisibWave heightAir tempDewpointWater temp
2016-Jul-20 03:33S 34°45' W 057°36'1010.4
2016-Jul-20 02:33S 34°44' W 057°48'3 3.4
2016-Jul-20 01:33S 34°43' W 057°52'1010.4
2016-Jul-20 00:33S 34°39' W 058°04'10 9.8
2016-Jul-19 23:33S 34°36' W 058°15'  
2016-Jul-15 17:33S 34°37' W 058°14'8 8.0
2016-Jul-15 16:34S 34°39' W 058°05'8 7.7
2016-Jul-15 15:34S 34°42' W 057°56'5 3.6
2016-Jul-15 14:15S 34°44' W 057°51'0 0.0
2016-Jul-15 13:33S 34°44' W 057°51'0 0.0
2016-Jul-15 12:33S 34°44' W 057°51'0 0.0
2016-Jul-15 11:33S 34°44' W 057°51'0 0.0
2016-Jul-15 10:33S 34°44' W 057°51'2 1.7
2016-Jul-15 09:33S 34°43' W 057°52'3 2.9
2016-Jul-15 08:33S 34°45' W 057°50'7 6.8
2016-Jul-15 07:33S 34°44' W 057°41'  

Dump ship's entire track history